Time;durP1;ratioP1;P1;durP2;ratioP2;P2;SDS_P1;SDS_P2;PMS_P1;PMS_P2;Temp;Humidity;BMP_temperature;BMP_pressure;BME280_temperature;BME280_humidity;BME280_pressure;Samples;Min_cycle;Max_cycle;Signal;HPM_P1;HPM_P2
2022/08/19 00:01:29;;;;;;;6.38;5.40;;;16.60;99.90;;;;;;4986158;28;20046;-60
2022/08/19 00:03:55;;;;;;;6.78;5.15;;;16.60;99.90;;;;;;4984896;28;20913;-59
2022/08/19 00:06:21;;;;;;;5.85;5.25;;;16.60;99.90;;;;;;4989677;28;20052;-59
2022/08/19 00:08:46;;;;;;;6.80;5.65;;;16.60;99.90;;;;;;4992801;28;20054;-58
2022/08/19 00:11:14;;;;;;;8.73;5.43;;;16.60;99.90;;;;;;4983932;28;20042;-59
2022/08/19 00:13:39;;;;;;;7.43;5.22;;;16.50;99.90;;;;;;4985369;28;20050;-59
2022/08/19 00:16:06;;;;;;;6.20;5.50;;;16.40;99.90;;;;;;4985606;28;20046;-59
2022/08/19 00:18:33;;;;;;;10.07;5.20;;;16.30;99.90;;;;;;4985007;28;20046;-59
2022/08/19 00:20:59;;;;;;;8.95;6.00;;;16.30;99.90;;;;;;4985753;28;20073;-59
2022/08/19 00:23:26;;;;;;;8.40;5.82;;;16.10;99.90;;;;;;4985565;28;20061;-59
2022/08/19 00:25:51;;;;;;;8.00;5.70;;;16.10;99.90;;;;;;4985405;28;20162;-59
2022/08/19 00:28:18;;;;;;;8.40;6.00;;;16.00;99.90;;;;;;4985333;28;20070;-59
2022/08/19 00:30:44;;;;;;;7.30;6.22;;;16.00;99.90;;;;;;4985415;28;20038;-59
2022/08/19 00:33:10;;;;;;;7.68;5.90;;;16.00;99.90;;;;;;4967709;28;20057;-59
2022/08/19 00:35:38;;;;;;;8.70;6.30;;;16.10;99.90;;;;;;4984892;28;20046;-59
2022/08/19 00:38:06;;;;;;;7.10;5.80;;;16.20;99.90;;;;;;4985865;28;20061;-59
2022/08/19 00:40:32;;;;;;;7.65;6.05;;;16.10;99.90;;;;;;4985454;28;20489;-59
2022/08/19 00:42:58;;;;;;;7.60;5.43;;;16.20;99.90;;;;;;4985070;28;20072;-59
2022/08/19 00:45:26;;;;;;;8.02;5.85;;;16.20;99.90;;;;;;4985329;28;20116;-60
2022/08/19 00:47:52;;;;;;;8.25;6.85;;;16.10;99.90;;;;;;4983855;28;20058;-59
2022/08/19 00:50:21;;;;;;;6.93;6.22;;;16.10;99.90;;;;;;4985524;28;20425;-59
2022/08/19 00:52:49;;;;;;;8.25;7.07;;;16.10;99.90;;;;;;4966956;28;20544;-59
2022/08/19 00:55:25;;;;;;;8.23;6.75;;;16.10;99.90;;;;;;4985374;28;20080;-59
2022/08/19 00:58:00;;;;;;;8.18;7.32;;;16.10;99.90;;;;;;4984546;28;20065;-59
2022/08/19 01:00:27;;;;;;;10.07;7.65;;;15.90;99.90;;;;;;4968345;28;20081;-59
2022/08/19 01:02:53;;;;;;;8.15;7.35;;;15.80;99.90;;;;;;4966693;28;20077;-59
2022/08/19 01:05:24;;;;;;;10.88;6.93;;;15.70;99.90;;;;;;4985450;28;20073;-59
2022/08/19 01:07:50;;;;;;;8.32;6.65;;;15.70;99.90;;;;;;4993584;28;20504;-59
2022/08/19 01:10:19;;;;;;;8.05;6.85;;;15.80;99.90;;;;;;5004789;28;20057;-59
2022/08/19 01:12:49;;;;;;;7.65;6.78;;;15.80;99.90;;;;;;5003978;28;20042;-59
2022/08/19 01:15:20;;;;;;;9.23;6.97;;;15.80;99.90;;;;;;5004652;28;20112;-59
2022/08/19 01:17:47;;;;;;;8.85;7.40;;;15.90;99.90;;;;;;5003699;28;20116;-59
2022/08/19 01:20:17;;;;;;;9.52;7.45;;;16.00;99.90;;;;;;5019129;28;20052;-59
2022/08/19 01:22:45;;;;;;;11.10;8.60;;;15.90;99.90;;;;;;5004531;28;20046;-59
2022/08/19 01:25:14;;;;;;;10.15;7.50;;;15.80;99.90;;;;;;5004587;28;20046;-59
2022/08/19 01:27:43;;;;;;;10.07;8.18;;;15.80;99.90;;;;;;5003804;28;20057;-59
2022/08/19 01:30:12;;;;;;;9.32;8.20;;;15.80;99.90;;;;;;5004554;28;20442;-59
2022/08/19 01:32:38;;;;;;;10.43;8.38;;;15.70;99.90;;;;;;5003615;28;20046;-58
2022/08/19 01:35:05;;;;;;;9.63;8.10;;;15.60;99.90;;;;;;5004517;28;20173;-59
2022/08/19 01:38:01;;;;;;;9.05;8.10;;;15.70;99.90;;;;;;5003644;28;20053;-59
2022/08/19 01:40:30;;;;;;;9.40;8.32;;;15.60;99.90;;;;;;5003228;28;20054;-59
2022/08/19 01:42:56;;;;;;;10.20;8.32;;;15.50;99.90;;;;;;5004121;28;20149;-59
2022/08/19 01:45:25;;;;;;;10.73;8.02;;;15.40;99.90;;;;;;5004482;28;20104;-58
2022/08/19 01:47:51;;;;;;;11.18;7.50;;;15.40;99.90;;;;;;5002982;28;20053;-59
2022/08/19 01:50:17;;;;;;;8.73;7.75;;;15.30;99.90;;;;;;5004582;28;20093;-58
2022/08/19 01:52:44;;;;;;;8.27;6.60;;;15.30;99.90;;;;;;5003896;28;20516;-59
2022/08/19 01:55:15;;;;;;;10.68;7.68;;;15.30;99.90;;;;;;5004479;28;20362;-59
2022/08/19 01:57:45;;;;;;;10.50;7.75;;;15.30;99.90;;;;;;5004164;28;20405;-60
2022/08/19 02:00:15;;;;;;;9.32;7.28;;;15.20;99.90;;;;;;5006989;28;20058;-59
2022/08/19 02:02:41;;;;;;;8.82;7.32;;;15.10;99.90;;;;;;5006607;28;20065;-59
2022/08/19 02:05:08;;;;;;;10.88;8.18;;;15.10;99.90;;;;;;5007920;28;20065;-59
2022/08/19 02:07:34;;;;;;;9.40;8.05;;;15.10;99.90;;;;;;4996102;28;20085;-59
2022/08/19 02:10:07;;;;;;;10.98;8.93;;;15.10;99.90;;;;;;5007742;28;20060;-58
2022/08/19 02:12:33;;;;;;;12.55;8.68;;;15.00;99.90;;;;;;5008126;28;20385;-59
2022/08/19 02:14:59;;;;;;;10.02;9.00;;;15.10;99.90;;;;;;5007583;28;20045;-59
2022/08/19 02:17:25;;;;;;;9.85;8.85;;;15.10;99.90;;;;;;5006832;28;20057;-59
2022/08/19 02:19:50;;;;;;;9.52;8.43;;;15.00;99.90;;;;;;5006840;28;20392;-59
2022/08/19 02:22:16;;;;;;;10.48;9.38;;;14.90;99.90;;;;;;5007635;28;20103;-59
2022/08/19 02:24:42;;;;;;;11.50;9.07;;;14.90;99.90;;;;;;5007119;28;20112;-59
2022/08/19 02:27:07;;;;;;;13.15;10.10;;;14.90;99.90;;;;;;5007048;28;20038;-59
2022/08/19 02:29:33;;;;;;;10.73;8.90;;;14.80;99.90;;;;;;5007907;28;20381;-59
2022/08/19 02:31:59;;;;;;;11.85;10.23;;;14.90;99.90;;;;;;5006615;28;20050;-59
2022/08/19 02:34:24;;;;;;;16.25;10.88;;;14.90;99.90;;;;;;5007070;28;20054;-58
2022/08/19 02:36:51;;;;;;;13.00;10.80;;;14.90;99.90;;;;;;5006803;28;20077;-57
2022/08/19 02:39:17;;;;;;;13.15;11.10;;;14.90;99.90;;;;;;5007427;28;20077;-58
2022/08/19 02:41:43;;;;;;;13.30;10.85;;;14.90;99.90;;;;;;5006650;28;20509;-58
2022/08/19 02:44:09;;;;;;;14.13;10.57;;;14.90;99.90;;;;;;5006558;28;20053;-59
2022/08/19 02:46:35;;;;;;;12.63;10.95;;;14.90;99.90;;;;;;5006366;28;20038;-60
2022/08/19 02:49:05;;;;;;;15.32;11.68;;;14.80;99.90;;;;;;5007297;28;20049;-59
2022/08/19 02:51:37;;;;;;;12.90;11.20;;;14.80;99.90;;;;;;5006611;28;20061;-59
2022/08/19 02:54:05;;;;;;;13.38;11.20;;;14.80;99.90;;;;;;5007085;28;20057;-58
2022/08/19 02:56:31;;;;;;;14.52;11.38;;;14.80;99.90;;;;;;5007140;28;20533;-59
2022/08/19 02:58:58;;;;;;;16.23;13.25;;;14.80;99.90;;;;;;5006261;28;20053;-59
2022/08/19 03:01:32;;;;;;;18.45;13.75;;;14.80;99.90;;;;;;5006186;28;20057;-59
2022/08/19 03:04:00;;;;;;;15.85;13.32;;;14.80;99.90;;;;;;5006521;28;20069;-58
2022/08/19 03:06:27;;;;;;;17.45;13.23;;;14.90;99.90;;;;;;4999790;28;20435;-59
2022/08/19 03:08:53;;;;;;;17.63;13.82;;;15.00;99.90;;;;;;4993231;28;20056;-59
2022/08/19 03:11:29;;;;;;;16.38;13.35;;;14.90;99.90;;;;;;5001264;28;20129;-59
2022/08/19 03:13:55;;;;;;;15.52;13.73;;;14.90;99.90;;;;;;4986202;28;20093;-59
2022/08/19 03:16:23;;;;;;;17.85;13.77;;;14.90;99.90;;;;;;4986051;28;20050;-59
2022/08/19 03:18:49;;;;;;;17.10;14.35;;;14.90;99.90;;;;;;4986499;28;20050;-59
2022/08/19 03:21:19;;;;;;;17.60;14.30;;;14.90;99.90;;;;;;4986701;28;20046;-59
2022/08/19 03:23:45;;;;;;;19.25;14.65;;;14.90;99.90;;;;;;4986646;28;20042;-60
2022/08/19 03:26:11;;;;;;;19.92;14.25;;;14.80;99.90;;;;;;4969532;28;20042;-59
2022/08/19 03:28:37;;;;;;;16.67;13.48;;;14.80;99.90;;;;;;4986473;28;20069;-60
2022/08/19 03:31:11;;;;;;;18.77;13.10;;;14.70;99.90;;;;;;4986669;28;20046;-59
2022/08/19 03:33:37;;;;;;;18.58;14.10;;;14.60;99.90;;;;;;4952804;28;20050;-59
2022/08/19 03:36:03;;;;;;;21.08;15.23;;;14.60;99.90;;;;;;4969527;28;20054;-59
2022/08/19 03:38:29;;;;;;;20.92;14.32;;;14.60;99.90;;;;;;4986175;28;20516;-58
2022/08/19 03:40:55;;;;;;;18.23;14.32;;;14.50;99.90;;;;;;4986237;28;20050;-59
2022/08/19 03:43:20;;;;;;;20.45;15.38;;;14.50;99.90;;;;;;4986285;28;20049;-59
2022/08/19 03:45:48;;;;;;;18.70;14.80;;;14.40;99.90;;;;;;4985671;28;20095;-59
2022/08/19 03:48:16;;;;;;;18.25;15.25;;;14.40;99.90;;;;;;4985405;28;20442;-59
2022/08/19 03:50:42;;;;;;;23.42;15.43;;;14.40;99.90;;;;;;4986179;28;20049;-59
2022/08/19 03:53:08;;;;;;;21.15;15.23;;;14.30;99.90;;;;;;4985661;28;20058;-59
2022/08/19 03:55:40;;;;;;;20.60;14.85;;;14.30;99.90;;;;;;4986407;28;20046;-59
2022/08/19 03:58:06;;;;;;;23.88;15.40;;;14.30;99.90;;;;;;4968938;28;20050;-59
2022/08/19 04:00:33;;;;;;;23.33;16.25;;;14.30;99.90;;;;;;4986266;28;20050;-59
2022/08/19 04:02:59;;;;;;;21.42;15.07;;;14.20;99.90;;;;;;4984954;28;20054;-59
2022/08/19 04:05:28;;;;;;;20.65;15.25;;;14.30;99.90;;;;;;4986608;28;20054;-58
2022/08/19 04:07:56;;;;;;;20.15;15.38;;;14.40;99.90;;;;;;4995277;28;20121;-59
2022/08/19 04:10:23;;;;;;;21.25;14.73;;;14.40;99.90;;;;;;4985572;28;20050;-58
2022/08/19 04:12:49;;;;;;;17.40;13.95;;;14.40;99.90;;;;;;4985638;28;20038;-58
2022/08/19 04:15:15;;;;;;;20.58;14.35;;;14.20;99.90;;;;;;4985721;28;20051;-58
2022/08/19 04:17:40;;;;;;;19.95;14.77;;;14.30;99.90;;;;;;4951019;28;20057;-59
2022/08/19 04:20:07;;;;;;;19.70;14.13;;;14.20;99.90;;;;;;4985913;28;20039;-59
2022/08/19 04:22:32;;;;;;;22.38;15.50;;;14.30;99.90;;;;;;4986070;28;20073;-59
2022/08/19 04:24:58;;;;;;;26.60;15.73;;;14.30;99.90;;;;;;4985540;28;20405;-60
2022/08/19 04:27:24;;;;;;;35.70;16.83;;;14.30;99.90;;;;;;4985105;28;20584;-59
2022/08/19 04:29:49;;;;;;;92.25;17.73;;;14.20;99.90;;;;;;4984608;28;20054;-58
2022/08/19 04:32:15;;;;;;;26.30;16.98;;;14.20;99.90;;;;;;4984595;28;20144;-59
2022/08/19 04:34:42;;;;;;;37.33;15.75;;;14.10;99.90;;;;;;4984824;28;20042;-59
2022/08/19 04:37:12;;;;;;;80.65;16.20;;;14.10;99.90;;;;;;4985436;28;20042;-59
2022/08/19 04:42:41;;;;;;;24.60;15.18;;;14.00;99.90;;;;;;4985359;28;20065;-58
2022/08/19 04:45:12;;;;;;;23.90;15.00;;;14.00;99.90;;;;;;4985432;28;20034;-59
2022/08/19 04:47:40;;;;;;;24.42;14.88;;;14.00;99.90;;;;;;4984505;28;20046;-59
2022/08/19 04:50:07;;;;;;;19.38;13.90;;;14.00;99.90;;;;;;4967961;28;20090;-59
2022/08/19 04:52:33;;;;;;;19.08;13.60;;;14.10;99.90;;;;;;4985172;28;20062;-59
2022/08/19 04:54:59;;;;;;;16.83;13.13;;;14.20;99.90;;;;;;4984782;28;20046;-59
2022/08/19 04:57:25;;;;;;;19.42;13.77;;;14.20;99.90;;;;;;4985308;28;20369;-58
2022/08/19 04:59:55;;;;;;;19.23;14.13;;;14.20;99.90;;;;;;4985206;28;20045;-59
2022/08/19 05:02:25;;;;;;;20.80;16.00;;;14.30;99.90;;;;;;4950614;28;20133;-59
2022/08/19 05:04:56;;;;;;;18.85;14.23;;;14.30;99.90;;;;;;4985133;28;20038;-59
2022/08/19 05:07:22;;;;;;;20.77;15.20;;;14.30;99.90;;;;;;4995633;28;20100;-59
2022/08/19 05:09:48;;;;;;;19.77;15.18;;;14.40;99.90;;;;;;4984643;28;20066;-57
2022/08/19 05:12:13;;;;;;;22.55;15.77;;;14.40;99.90;;;;;;4985162;28;20040;-59
2022/08/19 05:14:39;;;;;;;19.02;14.55;;;14.50;99.90;;;;;;4984783;28;20077;-58
2022/08/19 05:17:05;;;;;;;18.52;14.25;;;14.60;99.90;;;;;;4983700;28;20146;-61
2022/08/19 05:22:34;;;;;;;17.52;14.80;;;14.60;99.90;;;;;;4985008;28;20065;-59
2022/08/19 05:25:07;;;;;;;;;;;14.70;99.90;;;;;;4968024;28;20050;-59
2022/08/19 05:27:33;;;;;;;20.05;14.45;;;14.80;99.90;;;;;;4985065;28;19980;-59
2022/08/19 05:29:59;;;;;;;17.10;13.85;;;14.70;99.90;;;;;;4984431;28;20046;-59
2022/08/19 05:32:25;;;;;;;18.60;13.40;;;14.80;99.90;;;;;;4983813;28;20448;-59
2022/08/19 05:34:51;;;;;;;21.73;13.82;;;14.90;99.90;;;;;;4986685;28;20042;-59
2022/08/19 05:37:16;;;;;;;18.98;14.88;;;14.90;99.90;;;;;;4988188;28;20085;-59
2022/08/19 05:39:43;;;;;;;19.48;13.85;;;15.00;99.90;;;;;;4988382;28;20589;-59
2022/08/19 05:42:11;;;;;;;16.05;13.40;;;15.20;99.90;;;;;;4988393;28;20077;-59
2022/08/19 05:44:43;;;;;;;18.02;13.15;;;15.30;99.90;;;;;;4988001;28;20120;-59
2022/08/19 05:47:11;;;;;;;16.48;13.25;;;15.60;99.90;;;;;;4988067;28;20101;-59
2022/08/19 05:49:37;;;;;;;16.88;13.43;;;15.80;99.90;;;;;;4988189;28;20050;-58
2022/08/19 05:52:10;;;;;;;16.85;12.82;;;16.30;99.90;;;;;;4988331;28;20414;-58
2022/08/19 05:54:40;;;;;;;14.93;12.05;;;16.70;99.90;;;;;;4988469;28;20050;-59
2022/08/19 05:57:06;;;;;;;15.68;12.57;;;16.90;99.90;;;;;;4988175;28;20038;-59
2022/08/19 05:59:32;;;;;;;15.73;12.55;;;17.10;99.90;;;;;;4988114;28;20054;-59
2022/08/19 06:01:59;;;;;;;14.73;11.82;;;17.30;99.90;;;;;;4969888;28;20085;-59
2022/08/19 06:04:25;;;;;;;13.95;12.40;;;17.50;99.90;;;;;;4988403;28;20042;-59
2022/08/19 06:06:52;;;;;;;15.38;12.20;;;17.70;99.90;;;;;;4995593;28;20542;-59
2022/08/19 06:09:19;;;;;;;13.50;11.75;;;17.90;99.90;;;;;;4990652;28;20400;-59
2022/08/19 06:11:53;;;;;;;17.85;12.73;;;18.10;99.90;;;;;;4987725;28;20444;-59
2022/08/19 06:14:22;;;;;;;15.05;11.90;;;18.50;99.90;;;;;;4988337;28;20042;-59
2022/08/19 06:16:50;;;;;;;16.38;13.07;;;18.90;99.90;;;;;;4986536;28;20104;-59
2022/08/19 06:19:18;;;;;;;14.70;13.07;;;18.90;99.90;;;;;;4987896;28;20500;-59
2022/08/19 06:21:47;;;;;;;15.73;11.93;;;19.10;99.90;;;;;;4987740;28;20512;-59
2022/08/19 06:24:17;;;;;;;18.08;13.98;;;19.20;99.90;;;;;;4987241;28;20455;-59
2022/08/19 06:26:46;;;;;;;17.80;13.90;;;19.10;99.90;;;;;;4987776;28;20042;-59
2022/08/19 06:29:14;;;;;;;19.90;13.70;;;18.70;99.90;;;;;;4987518;28;20053;-59
2022/08/19 06:31:45;;;;;;;19.02;13.50;;;18.60;99.90;;;;;;4986618;28;20042;-59
2022/08/19 06:34:11;;;;;;;21.33;14.02;;;18.80;99.90;;;;;;4987364;28;20074;-58
2022/08/19 06:36:41;;;;;;;23.25;15.38;;;18.90;99.90;;;;;;4987268;28;20082;-59
2022/08/19 06:39:11;;;;;;;24.45;16.25;;;19.20;99.90;;;;;;4987345;28;20574;-59
2022/08/19 06:41:40;;;;;;;20.85;15.82;;;19.60;99.90;;;;;;4987146;28;20607;-58
2022/08/19 06:44:06;;;;;;;22.20;15.50;;;19.70;99.90;;;;;;4987624;28;20078;-59
2022/08/19 06:46:32;;;;;;;22.73;15.50;;;20.30;99.90;;;;;;4985185;28;20429;-60
2022/08/19 06:48:58;;;;;;;17.80;13.00;;;20.60;99.90;;;;;;4987026;28;20050;-59
2022/08/19 06:51:25;;;;;;;14.43;11.52;;;20.30;99.90;;;;;;4969710;28;20054;-59
2022/08/19 06:53:53;;;;;;;15.40;11.57;;;20.10;99.90;;;;;;4986743;28;20046;-59
2022/08/19 06:56:30;;;;;;;12.75;10.90;;;19.70;99.90;;;;;;4986958;28;20070;-57
2022/08/19 06:58:56;;;;;;;10.75;9.65;;;20.10;99.90;;;;;;4986910;28;20520;-59
2022/08/19 07:01:22;;;;;;;10.13;9.02;;;20.00;99.90;;;;;;4986087;28;20038;-59
2022/08/19 07:03:48;;;;;;;11.23;9.30;;;19.70;99.90;;;;;;4986540;28;20038;-59
2022/08/19 07:06:17;;;;;;;11.88;9.35;;;19.40;99.90;;;;;;4989955;28;20042;-59
2022/08/19 07:08:45;;;;;;;11.27;9.82;;;19.40;99.90;;;;;;4994032;28;20050;-59
2022/08/19 07:11:13;;;;;;;11.85;9.55;;;19.20;99.90;;;;;;4987099;28;20879;-59
2022/08/19 07:13:40;;;;;;;13.07;10.15;;;19.40;99.90;;;;;;4986734;28;20034;-58
2022/08/19 07:16:07;;;;;;;11.77;9.73;;;19.40;99.90;;;;;;4985633;28;20039;-59
2022/08/19 07:18:33;;;;;;;10.50;9.43;;;19.60;99.90;;;;;;4986939;28;20052;-59
2022/08/19 07:21:07;;;;;;;13.85;10.35;;;19.80;99.90;;;;;;4986589;28;20042;-58
2022/08/19 07:23:33;;;;;;;10.93;8.63;;;19.80;99.90;;;;;;4986717;28;20046;-59
2022/08/19 07:26:30;;;;;;;12.93;10.95;;;19.70;99.90;;;;;;4986511;28;20117;-59
2022/08/19 07:28:57;;;;;;;12.93;10.13;;;20.10;99.90;;;;;;4982038;28;20085;-59
2022/08/19 07:31:25;;;;;;;15.15;10.70;;;20.20;99.90;;;;;;4968242;28;20125;-59
2022/08/19 07:33:55;;;;;;;12.48;10.98;;;20.40;99.90;;;;;;4986237;28;20081;-59
2022/08/19 07:36:23;;;;;;;13.02;10.52;;;20.60;99.90;;;;;;4986019;28;20149;-59
2022/08/19 07:38:51;;;;;;;11.05;9.73;;;20.70;99.90;;;;;;4985912;28;20046;-59
2022/08/19 07:41:21;;;;;;;12.23;10.65;;;21.00;99.90;;;;;;4986166;28;20085;-59
2022/08/19 07:43:47;;;;;;;13.82;10.88;;;20.80;99.90;;;;;;4968170;28;20129;-59
2022/08/19 07:46:14;;;;;;;12.57;10.70;;;20.90;99.90;;;;;;4985442;28;20042;-59
2022/08/19 07:48:42;;;;;;;13.50;10.95;;;20.90;99.90;;;;;;4986106;28;20050;-59
2022/08/19 07:51:09;;;;;;;15.98;10.90;;;20.90;99.90;;;;;;4986010;28;20409;-60
2022/08/19 07:53:36;;;;;;;14.98;11.73;;;20.50;99.90;;;;;;4985359;28;20425;-59
2022/08/19 07:56:04;;;;;;;15.13;11.48;;;20.60;99.90;;;;;;4985701;28;20089;-59
2022/08/19 07:58:33;;;;;;;13.77;11.57;;;20.80;99.90;;;;;;4986114;28;20077;-59
2022/08/19 08:01:00;;;;;;;15.02;11.60;;;20.80;99.90;;;;;;4984486;28;20050;-59
2022/08/19 08:09:11;;;;;;;12.88;10.60;;;21.40;99.90;;;;;;4991027;28;20057;-60
2022/08/19 08:11:44;;;;;;;12.80;10.45;;;21.60;99.90;;;;;;4984957;28;20160;-59
2022/08/19 08:14:10;;;;;;;11.13;9.73;;;21.80;99.90;;;;;;4985816;28;20053;-60
2022/08/19 08:16:38;;;;;;;13.63;10.45;;;21.90;99.90;;;;;;4985038;28;20108;-60
2022/08/19 08:19:07;;;;;;;13.35;8.95;;;21.80;99.90;;;;;;4985207;28;20054;-58
2022/08/19 08:21:34;;;;;;;11.85;9.93;;;21.50;99.90;;;;;;4985702;28;20192;-59
2022/08/19 08:23:59;;;;;;;13.57;10.07;;;22.00;99.90;;;;;;4967968;28;20117;-59
2022/08/19 08:26:25;;;;;;;10.20;8.90;;;22.10;99.90;;;;;;4967782;28;20453;-60
2022/08/19 08:28:52;;;;;;;13.70;9.60;;;22.50;99.90;;;;;;4985535;28;20045;-59
2022/08/19 08:31:19;;;;;;;15.40;9.45;;;22.80;99.90;;;;;;4984969;28;20524;-59
2022/08/19 08:33:46;;;;;;;12.68;9.07;;;22.90;99.90;;;;;;4985013;28;20058;-60
2022/08/19 08:36:13;;;;;;;10.93;8.75;;;23.20;99.90;;;;;;4985342;28;20038;-58
2022/08/19 08:38:41;;;;;;;11.20;9.68;;;23.10;99.90;;;;;;4985094;28;20105;-54
2022/08/19 08:41:19;;;;;;;11.23;9.02;;;23.00;99.90;;;;;;4967749;28;20061;-58
2022/08/19 08:43:48;;;;;;;13.05;9.20;;;23.00;99.90;;;;;;4984944;28;20073;-57
2022/08/19 08:46:38;;;;;;;11.10;9.60;;;22.90;99.90;;;;;;4984372;28;20058;-58
2022/08/19 08:49:33;;;;;;;12.70;9.38;;;23.20;99.90;;;;;;4985314;28;20050;-58
2022/08/19 08:52:36;;;;;;;9.13;8.23;;;23.40;99.90;;;;;;4984181;28;20489;-57
2022/08/19 08:55:10;;;;;;;9.23;8.05;;;23.70;99.90;;;;;;4868097;29;20116;-57
2022/08/19 08:57:42;;;;;;;;;;;23.70;99.90;;;;;;4969615;28;20038;-58
2022/08/19 09:00:13;;;;;;;10.15;7.90;;;23.90;99.90;;;;;;4984889;28;19933;-57
2022/08/19 09:02:39;;;;;;;11.45;8.05;;;23.90;99.90;;;;;;4984570;28;20038;-57
2022/08/19 09:05:05;;;;;;;10.88;8.68;;;23.70;99.90;;;;;;4984924;28;20042;-58
2022/08/19 09:07:39;;;;;;;10.05;7.82;;;23.80;99.90;;;;;;4978766;28;20050;-58
2022/08/19 09:10:27;;;;;;;8.33;7.30;;;24.00;99.90;;;;;;4987455;28;20050;-58
2022/08/19 09:12:58;;;;;;;7.90;7.00;;;24.30;99.90;;;;;;4988755;28;20125;-58
2022/08/19 09:15:44;;;;;;;9.23;7.40;;;24.30;99.90;;;;;;4970188;28;20046;-57
2022/08/19 09:18:10;;;;;;;9.38;6.30;;;24.60;99.90;;;;;;4988783;28;20050;-58
2022/08/19 09:20:36;;;;;;;6.85;5.70;;;25.10;99.90;;;;;;4988400;28;20042;-58
2022/08/19 09:23:02;;;;;;;7.72;5.22;;;25.20;99.90;;;;;;4989031;28;20481;-57
2022/08/19 09:25:27;;;;;;;6.95;5.97;;;25.40;99.90;;;;;;4988871;28;20043;-57
2022/08/19 09:27:56;;;;;;;10.90;7.07;;;25.30;99.90;;;;;;4988526;28;20500;-57
2022/08/19 09:30:27;;;;;;;8.45;5.88;;;25.40;99.90;;;;;;4988038;28;20061;-57
2022/08/19 09:32:54;;;;;;;8.75;5.88;;;25.90;99.90;;;;;;4988618;28;20042;-58
2022/08/19 09:35:25;;;;;;;7.80;5.40;;;25.90;99.90;;;;;;4988601;28;20489;-58
2022/08/19 09:37:51;;;;;;;7.68;5.57;;;26.30;99.90;;;;;;4993617;28;20038;-57
2022/08/19 09:40:18;;;;;;;5.60;5.00;;;25.90;99.90;;;;;;4990310;28;20093;-58
2022/08/19 09:42:46;;;;;;;7.30;4.93;;;25.70;99.90;;;;;;5001147;28;20046;-57
2022/08/19 09:45:13;;;;;;;5.80;5.07;;;25.90;99.90;;;;;;4969914;28;20050;-59
2022/08/19 09:47:39;;;;;;;7.25;5.68;;;25.50;99.90;;;;;;4987881;28;20054;-57
2022/08/19 09:50:07;;;;;;;5.65;4.38;;;25.40;99.90;;;;;;4988711;28;20515;-58
2022/08/19 09:52:34;;;;;;;6.50;5.40;;;25.30;99.90;;;;;;4987778;28;20058;-57
2022/08/19 09:54:59;;;;;;;6.30;4.63;;;25.60;99.90;;;;;;4971109;28;20042;-56
2022/08/19 09:57:25;;;;;;;6.28;4.95;;;25.60;99.90;;;;;;4988123;28;20559;-56
2022/08/19 09:59:51;;;;;;;5.60;4.35;;;25.60;99.90;;;;;;4987505;28;20064;-57
2022/08/19 10:02:17;;;;;;;6.13;4.55;;;25.50;99.90;;;;;;4987459;28;20042;-57
2022/08/19 10:07:29;;;;;;;;;;;25.30;99.90;;;;;;4998855;28;20133;-56
2022/08/19 10:09:55;;;;;;;8.10;5.22;;;25.60;99.90;;;;;;4970339;28;20007;-57
2022/08/19 10:12:21;;;;;;;6.47;4.90;;;25.50;99.90;;;;;;4988250;28;20042;-57
2022/08/19 10:14:46;;;;;;;5.13;3.75;;;25.20;99.90;;;;;;4987370;28;20837;-56
2022/08/19 10:17:12;;;;;;;6.53;5.30;;;25.00;99.90;;;;;;4987204;28;20074;-57
2022/08/19 10:19:38;;;;;;;6.60;4.63;;;25.40;99.90;;;;;;4987513;28;20436;-57
2022/08/19 10:22:05;;;;;;;5.70;3.90;;;25.40;99.90;;;;;;4988018;28;20073;-56
2022/08/19 10:24:31;;;;;;;6.65;5.18;;;25.60;99.90;;;;;;4987815;28;20121;-57
2022/08/19 10:26:57;;;;;;;6.63;4.15;;;25.70;99.90;;;;;;4987242;28;20046;-56
2022/08/19 10:29:23;;;;;;;4.95;3.95;;;25.90;99.90;;;;;;4987559;28;20101;-57
2022/08/19 10:31:48;;;;;;;5.70;4.28;;;26.20;99.90;;;;;;4986121;28;20493;-57
2022/08/19 10:34:14;;;;;;;7.32;3.50;;;26.10;99.90;;;;;;4987487;28;20046;-56
2022/08/19 10:36:40;;;;;;;5.22;3.67;;;26.60;99.90;;;;;;4987095;28;20057;-56
2022/08/19 10:39:08;;;;;;;4.90;3.30;;;27.40;99.90;;;;;;4987122;28;20038;-57
2022/08/19 10:41:36;;;;;;;6.13;3.78;;;27.60;99.90;;;;;;4987740;28;20051;-57
2022/08/19 10:44:08;;;;;;;5.10;3.65;;;28.00;99.90;;;;;;4987583;28;20456;-57
2022/08/19 10:46:38;;;;;;;5.53;3.70;;;27.60;99.90;;;;;;4986149;28;20038;-57
2022/08/19 10:49:05;;;;;;;5.60;3.40;;;27.60;99.90;;;;;;4987305;28;20050;-58
2022/08/19 10:54:17;;;;;;;6.05;2.78;;;26.60;99.90;;;;;;4992804;28;20057;-57
2022/08/19 10:56:52;;;;;;;4.75;2.83;;;26.80;99.90;;;;;;4993064;28;20092;-57
2022/08/19 10:59:29;;;;;;;3.38;2.42;;;27.00;99.90;;;;;;4992436;28;20034;-57
2022/08/19 11:02:00;;;;;;;3.78;2.47;;;27.80;99.90;;;;;;4992146;28;20070;-57
2022/08/19 11:04:27;;;;;;;5.22;3.05;;;28.10;99.90;;;;;;4992633;28;20046;-57
2022/08/19 11:06:53;;;;;;;5.03;3.30;;;27.90;99.90;;;;;;4991587;28;20034;-57
2022/08/19 11:09:25;;;;;;;4.47;2.95;;;27.90;99.90;;;;;;4992521;28;20043;-59
2022/08/19 11:11:53;;;;;;;4.45;3.00;;;28.00;99.90;;;;;;4993495;28;20048;-59
2022/08/19 11:14:20;;;;;;;4.20;2.60;;;28.20;99.90;;;;;;4993425;28;20464;-58
2022/08/19 11:16:47;;;;;;;3.28;2.47;;;28.30;99.90;;;;;;4993009;28;20038;-59
2022/08/19 11:19:15;;;;;;;3.92;2.78;;;28.10;99.90;;;;;;4993971;28;20041;-60
2022/08/19 11:21:44;;;;;;;6.32;3.05;;;28.30;99.90;;;;;;4992880;28;20077;-59
2022/08/19 11:24:24;;;;;;;4.80;3.25;;;28.50;99.90;;;;;;4993825;28;20065;-58
2022/08/19 11:26:52;;;;;;;3.28;2.50;;;28.40;99.90;;;;;;4975390;28;20053;-60
2022/08/19 11:29:20;;;;;;;4.65;3.08;;;28.80;99.90;;;;;;4992900;28;20053;-59
2022/08/19 11:31:49;;;;;;;5.07;2.63;;;28.00;99.90;;;;;;4990546;28;20042;-58
2022/08/19 11:34:25;;;;;;;3.67;2.80;;;28.70;99.90;;;;;;4992017;28;20538;-58
2022/08/19 11:36:51;;;;;;;4.45;3.47;;;28.80;99.90;;;;;;4992130;28;20052;-58
2022/08/19 11:39:20;;;;;;;5.00;3.40;;;28.70;99.90;;;;;;4992004;28;20061;-58
2022/08/19 11:41:47;;;;;;;5.47;3.50;;;29.20;99.90;;;;;;4981905;28;20061;-58
2022/08/19 11:44:14;;;;;;;5.20;4.35;;;29.60;99.90;;;;;;4975068;28;20041;-61
2022/08/19 11:46:45;;;;;;;4.97;3.80;;;29.00;99.90;;;;;;4973342;28;20057;-61
2022/08/19 11:49:11;;;;;;;4.97;4.47;;;28.50;99.90;;;;;;4992093;28;20081;-62
2022/08/19 11:51:37;;;;;;;5.68;4.50;;;27.80;99.90;;;;;;4973602;28;20050;-55
2022/08/19 11:54:05;;;;;;;4.97;4.57;;;27.40;99.90;;;;;;4992394;28;20497;-58
2022/08/19 11:56:31;;;;;;;5.10;3.88;;;26.90;99.90;;;;;;4992203;28;20518;-58
2022/08/19 11:58:57;;;;;;;4.35;3.63;;;26.80;99.90;;;;;;4990890;28;20046;-57
2022/08/19 12:01:25;;;;;;;5.25;4.50;;;27.10;99.90;;;;;;4991399;28;20041;-57
2022/08/19 12:03:52;;;;;;;5.95;4.22;;;27.30;99.90;;;;;;4992342;28;20126;-71
2022/08/19 12:06:28;;;;;;;7.07;4.50;;;27.70;99.90;;;;;;4981266;28;20092;-71
2022/08/19 12:08:55;;;;;;;5.72;4.40;;;27.90;99.90;;;;;;4991677;28;20044;-70
2022/08/19 12:11:21;;;;;;;6.22;4.88;;;28.00;99.90;;;;;;4991676;28;20046;-67
2022/08/19 12:13:47;;;;;;;7.18;5.18;;;27.40;99.90;;;;;;4991178;28;20050;-67
2022/08/19 12:16:19;;;;;;;6.30;5.15;;;28.00;99.90;;;;;;4973684;28;20042;-59
2022/08/19 12:18:46;;;;;;;6.07;5.47;;;28.10;99.90;;;;;;4991180;28;20069;-56
2022/08/19 12:21:20;;;;;;;5.78;4.90;;;28.00;99.90;;;;;;4987944;28;20064;-57
2022/08/19 12:23:48;;;;;;;6.30;4.82;;;28.00;99.90;;;;;;4991882;28;20042;-57
2022/08/19 12:26:14;;;;;;;5.90;4.50;;;28.30;99.90;;;;;;4992156;28;20429;-57
2022/08/19 12:28:41;;;;;;;6.07;4.95;;;28.40;99.90;;;;;;4989498;28;20031;-57
2022/08/19 12:31:07;;;;;;;4.90;4.40;;;28.40;99.90;;;;;;4991478;28;20707;-57
2022/08/19 12:33:33;;;;;;;4.20;3.70;;;28.70;99.90;;;;;;4991432;28;20459;-56
2022/08/19 12:36:05;;;;;;;5.05;4.20;;;29.40;99.90;;;;;;4990535;28;20046;-57
2022/08/19 12:38:32;;;;;;;4.68;3.78;;;28.90;99.90;;;;;;4991979;28;20041;-57
2022/08/19 12:40:57;;;;;;;5.68;4.25;;;29.30;99.90;;;;;;4990135;28;20058;-57
2022/08/19 12:43:23;;;;;;;5.18;4.47;;;28.90;99.90;;;;;;4990487;28;20436;-59
2022/08/19 12:45:49;;;;;;;5.47;4.53;;;28.90;99.90;;;;;;4989251;28;20543;-57
2022/08/19 12:48:16;;;;;;;5.32;4.45;;;28.80;99.90;;;;;;4990656;28;20485;-57
2022/08/19 12:50:45;;;;;;;8.43;5.45;;;29.20;99.90;;;;;;4990138;28;20539;-57
2022/08/19 12:53:11;;;;;;;5.75;5.13;;;29.10;99.90;;;;;;4989836;28;20069;-57
2022/08/19 12:55:37;;;;;;;5.22;4.60;;;28.80;99.90;;;;;;4991449;28;20098;-57
2022/08/19 12:58:03;;;;;;;6.60;4.80;;;29.20;99.90;;;;;;4990633;28;20046;-57
2022/08/19 13:00:29;;;;;;;5.85;5.25;;;29.20;99.90;;;;;;4989813;28;20038;-57